sensor_id;sensor_type;location;lat;lon;timestamp;P1;durP1;ratioP1;P2;durP2;ratioP2
12480;SDS011;6305;48.398;11.762;2023-07-29T00:01:58;8.93;;;5.78;;
12480;SDS011;6305;48.398;11.762;2023-07-29T00:04:24;8.00;;;5.75;;
12480;SDS011;6305;48.398;11.762;2023-07-29T00:06:51;7.93;;;5.80;;
12480;SDS011;6305;48.398;11.762;2023-07-29T00:09:20;12.40;;;5.65;;
12480;SDS011;6305;48.398;11.762;2023-07-29T00:11:47;7.72;;;5.63;;
12480;SDS011;6305;48.398;11.762;2023-07-29T00:14:14;8.45;;;5.53;;
12480;SDS011;6305;48.398;11.762;2023-07-29T00:16:41;7.95;;;5.60;;
12480;SDS011;6305;48.398;11.762;2023-07-29T00:19:08;8.18;;;5.95;;
12480;SDS011;6305;48.398;11.762;2023-07-29T00:21:35;7.63;;;5.75;;
12480;SDS011;6305;48.398;11.762;2023-07-29T00:24:02;7.85;;;5.07;;
12480;SDS011;6305;48.398;11.762;2023-07-29T00:26:31;8.10;;;5.80;;
12480;SDS011;6305;48.398;11.762;2023-07-29T00:28:58;7.75;;;5.90;;
12480;SDS011;6305;48.398;11.762;2023-07-29T00:31:25;7.65;;;5.55;;
12480;SDS011;6305;48.398;11.762;2023-07-29T00:33:52;7.82;;;5.65;;
12480;SDS011;6305;48.398;11.762;2023-07-29T00:36:19;8.90;;;6.10;;
12480;SDS011;6305;48.398;11.762;2023-07-29T00:38:46;10.85;;;5.82;;
12480;SDS011;6305;48.398;11.762;2023-07-29T00:41:14;8.10;;;6.13;;
12480;SDS011;6305;48.398;11.762;2023-07-29T00:43:43;7.72;;;5.68;;
12480;SDS011;6305;48.398;11.762;2023-07-29T00:46:10;8.13;;;5.72;;
12480;SDS011;6305;48.398;11.762;2023-07-29T00:48:38;8.40;;;5.60;;
12480;SDS011;6305;48.398;11.762;2023-07-29T00:51:05;8.32;;;5.55;;
12480;SDS011;6305;48.398;11.762;2023-07-29T00:53:32;9.73;;;6.50;;
12480;SDS011;6305;48.398;11.762;2023-07-29T00:55:59;9.73;;;5.88;;
12480;SDS011;6305;48.398;11.762;2023-07-29T00:58:26;9.55;;;6.10;;
12480;SDS011;6305;48.398;11.762;2023-07-29T01:00:55;10.05;;;6.43;;
12480;SDS011;6305;48.398;11.762;2023-07-29T01:03:22;9.65;;;6.00;;
12480;SDS011;6305;48.398;11.762;2023-07-29T01:05:50;9.88;;;6.30;;
12480;SDS011;6305;48.398;11.762;2023-07-29T01:08:28;9.65;;;6.03;;
12480;SDS011;6305;48.398;11.762;2023-07-29T01:11:04;10.05;;;6.38;;
12480;SDS011;6305;48.398;11.762;2023-07-29T01:13:41;8.35;;;5.78;;
12480;SDS011;6305;48.398;11.762;2023-07-29T01:16:14;12.85;;;6.32;;
12480;SDS011;6305;48.398;11.762;2023-07-29T01:18:47;10.02;;;6.78;;
12480;SDS011;6305;48.398;11.762;2023-07-29T01:21:16;11.45;;;6.68;;
12480;SDS011;6305;48.398;11.762;2023-07-29T01:23:45;12.35;;;6.47;;
12480;SDS011;6305;48.398;11.762;2023-07-29T01:26:12;11.30;;;6.50;;
12480;SDS011;6305;48.398;11.762;2023-07-29T01:28:40;10.20;;;6.70;;
12480;SDS011;6305;48.398;11.762;2023-07-29T01:31:09;10.60;;;7.15;;
12480;SDS011;6305;48.398;11.762;2023-07-29T01:33:40;10.10;;;6.47;;
12480;SDS011;6305;48.398;11.762;2023-07-29T01:36:15;12.63;;;7.40;;
12480;SDS011;6305;48.398;11.762;2023-07-29T01:38:49;14.23;;;7.53;;
12480;SDS011;6305;48.398;11.762;2023-07-29T01:41:17;11.10;;;7.80;;
12480;SDS011;6305;48.398;11.762;2023-07-29T01:43:45;8.95;;;6.72;;
12480;SDS011;6305;48.398;11.762;2023-07-29T01:46:13;13.27;;;8.50;;
12480;SDS011;6305;48.398;11.762;2023-07-29T01:48:41;14.82;;;8.35;;
12480;SDS011;6305;48.398;11.762;2023-07-29T01:51:10;15.30;;;8.63;;
12480;SDS011;6305;48.398;11.762;2023-07-29T01:53:38;15.95;;;8.93;;
12480;SDS011;6305;48.398;11.762;2023-07-29T01:56:06;15.25;;;9.02;;
12480;SDS011;6305;48.398;11.762;2023-07-29T01:58:35;13.43;;;9.73;;
12480;SDS011;6305;48.398;11.762;2023-07-29T02:01:02;15.38;;;9.25;;
12480;SDS011;6305;48.398;11.762;2023-07-29T02:03:29;15.98;;;9.73;;
12480;SDS011;6305;48.398;11.762;2023-07-29T02:05:57;14.88;;;9.43;;
12480;SDS011;6305;48.398;11.762;2023-07-29T02:08:27;16.05;;;9.02;;
12480;SDS011;6305;48.398;11.762;2023-07-29T02:10:54;17.17;;;9.32;;
12480;SDS011;6305;48.398;11.762;2023-07-29T02:13:22;15.65;;;9.48;;
12480;SDS011;6305;48.398;11.762;2023-07-29T02:15:49;18.35;;;9.45;;
12480;SDS011;6305;48.398;11.762;2023-07-29T02:18:17;14.70;;;8.93;;
12480;SDS011;6305;48.398;11.762;2023-07-29T02:20:44;16.58;;;9.85;;
12480;SDS011;6305;48.398;11.762;2023-07-29T02:23:14;15.07;;;8.80;;
12480;SDS011;6305;48.398;11.762;2023-07-29T02:25:42;14.32;;;9.43;;
12480;SDS011;6305;48.398;11.762;2023-07-29T02:28:09;17.10;;;10.55;;
12480;SDS011;6305;48.398;11.762;2023-07-29T02:30:41;20.40;;;10.93;;
12480;SDS011;6305;48.398;11.762;2023-07-29T02:33:10;19.38;;;11.25;;
12480;SDS011;6305;48.398;11.762;2023-07-29T02:35:37;16.75;;;10.20;;
12480;SDS011;6305;48.398;11.762;2023-07-29T02:38:04;19.95;;;10.98;;
12480;SDS011;6305;48.398;11.762;2023-07-29T02:40:31;19.23;;;10.80;;
12480;SDS011;6305;48.398;11.762;2023-07-29T02:42:58;20.35;;;10.82;;
12480;SDS011;6305;48.398;11.762;2023-07-29T02:45:26;21.88;;;11.10;;
12480;SDS011;6305;48.398;11.762;2023-07-29T02:47:54;17.83;;;9.88;;
12480;SDS011;6305;48.398;11.762;2023-07-29T02:50:21;20.17;;;11.07;;
12480;SDS011;6305;48.398;11.762;2023-07-29T02:52:48;19.83;;;11.45;;
12480;SDS011;6305;48.398;11.762;2023-07-29T02:55:15;23.58;;;10.98;;
12480;SDS011;6305;48.398;11.762;2023-07-29T02:57:42;18.73;;;11.55;;
12480;SDS011;6305;48.398;11.762;2023-07-29T03:00:10;20.88;;;11.55;;
12480;SDS011;6305;48.398;11.762;2023-07-29T03:02:38;20.83;;;11.95;;
12480;SDS011;6305;48.398;11.762;2023-07-29T03:05:07;20.98;;;10.68;;
12480;SDS011;6305;48.398;11.762;2023-07-29T03:07:35;21.13;;;11.50;;
12480;SDS011;6305;48.398;11.762;2023-07-29T03:10:02;21.17;;;12.18;;
12480;SDS011;6305;48.398;11.762;2023-07-29T03:12:29;21.38;;;11.18;;
12480;SDS011;6305;48.398;11.762;2023-07-29T03:14:56;22.05;;;11.25;;
12480;SDS011;6305;48.398;11.762;2023-07-29T03:17:25;21.02;;;11.48;;
12480;SDS011;6305;48.398;11.762;2023-07-29T03:19:52;20.98;;;11.05;;
12480;SDS011;6305;48.398;11.762;2023-07-29T03:22:20;21.17;;;11.38;;
12480;SDS011;6305;48.398;11.762;2023-07-29T03:24:47;20.75;;;11.43;;
12480;SDS011;6305;48.398;11.762;2023-07-29T03:27:14;19.70;;;11.90;;
12480;SDS011;6305;48.398;11.762;2023-07-29T03:29:41;23.85;;;12.77;;
12480;SDS011;6305;48.398;11.762;2023-07-29T03:32:08;26.42;;;12.63;;
12480;SDS011;6305;48.398;11.762;2023-07-29T03:34:35;30.42;;;13.27;;
12480;SDS011;6305;48.398;11.762;2023-07-29T03:37:02;19.65;;;11.25;;
12480;SDS011;6305;48.398;11.762;2023-07-29T03:39:31;21.30;;;12.70;;
12480;SDS011;6305;48.398;11.762;2023-07-29T03:41:58;19.25;;;11.85;;
12480;SDS011;6305;48.398;11.762;2023-07-29T03:44:25;22.38;;;11.15;;
12480;SDS011;6305;48.398;11.762;2023-07-29T03:46:52;21.20;;;11.48;;
12480;SDS011;6305;48.398;11.762;2023-07-29T03:49:19;19.40;;;11.48;;
12480;SDS011;6305;48.398;11.762;2023-07-29T03:51:47;20.25;;;11.95;;
12480;SDS011;6305;48.398;11.762;2023-07-29T03:54:14;23.75;;;13.07;;
12480;SDS011;6305;48.398;11.762;2023-07-29T03:56:42;25.27;;;13.75;;
12480;SDS011;6305;48.398;11.762;2023-07-29T03:59:09;25.42;;;13.43;;
12480;SDS011;6305;48.398;11.762;2023-07-29T04:01:36;21.95;;;13.25;;
12480;SDS011;6305;48.398;11.762;2023-07-29T04:04:03;21.33;;;13.57;;
12480;SDS011;6305;48.398;11.762;2023-07-29T04:06:31;23.40;;;13.00;;
12480;SDS011;6305;48.398;11.762;2023-07-29T04:08:58;22.58;;;13.38;;
12480;SDS011;6305;48.398;11.762;2023-07-29T04:11:25;19.60;;;12.73;;
12480;SDS011;6305;48.398;11.762;2023-07-29T04:13:53;20.20;;;12.32;;
12480;SDS011;6305;48.398;11.762;2023-07-29T04:16:20;20.33;;;11.88;;
12480;SDS011;6305;48.398;11.762;2023-07-29T04:18:47;21.00;;;12.25;;
12480;SDS011;6305;48.398;11.762;2023-07-29T04:21:14;18.02;;;11.27;;
12480;SDS011;6305;48.398;11.762;2023-07-29T04:23:41;22.85;;;11.88;;
12480;SDS011;6305;48.398;11.762;2023-07-29T04:26:08;17.00;;;10.95;;
12480;SDS011;6305;48.398;11.762;2023-07-29T04:28:36;19.63;;;10.90;;
12480;SDS011;6305;48.398;11.762;2023-07-29T04:31:04;17.33;;;9.85;;
12480;SDS011;6305;48.398;11.762;2023-07-29T04:33:31;15.95;;;9.90;;
12480;SDS011;6305;48.398;11.762;2023-07-29T04:35:59;15.63;;;10.05;;
12480;SDS011;6305;48.398;11.762;2023-07-29T04:38:30;15.20;;;9.60;;
12480;SDS011;6305;48.398;11.762;2023-07-29T04:40:58;15.05;;;9.73;;
12480;SDS011;6305;48.398;11.762;2023-07-29T04:43:26;14.65;;;9.02;;
12480;SDS011;6305;48.398;11.762;2023-07-29T04:45:54;14.38;;;9.30;;
12480;SDS011;6305;48.398;11.762;2023-07-29T04:48:22;14.80;;;8.77;;
12480;SDS011;6305;48.398;11.762;2023-07-29T04:50:49;14.02;;;8.40;;
12480;SDS011;6305;48.398;11.762;2023-07-29T04:53:16;14.75;;;9.05;;
12480;SDS011;6305;48.398;11.762;2023-07-29T04:55:43;12.32;;;8.45;;
12480;SDS011;6305;48.398;11.762;2023-07-29T04:58:10;16.20;;;9.60;;
12480;SDS011;6305;48.398;11.762;2023-07-29T05:00:37;13.73;;;8.85;;
12480;SDS011;6305;48.398;11.762;2023-07-29T05:03:04;15.35;;;8.82;;
12480;SDS011;6305;48.398;11.762;2023-07-29T05:05:33;13.32;;;8.30;;
12480;SDS011;6305;48.398;11.762;2023-07-29T05:08:01;12.50;;;7.97;;
12480;SDS011;6305;48.398;11.762;2023-07-29T05:10:28;10.85;;;7.00;;
12480;SDS011;6305;48.398;11.762;2023-07-29T05:12:55;10.65;;;6.50;;
12480;SDS011;6305;48.398;11.762;2023-07-29T05:15:22;8.07;;;5.68;;
12480;SDS011;6305;48.398;11.762;2023-07-29T05:17:49;6.78;;;5.13;;
12480;SDS011;6305;48.398;11.762;2023-07-29T05:20:17;6.13;;;4.53;;
12480;SDS011;6305;48.398;11.762;2023-07-29T05:22:45;6.20;;;4.15;;
12480;SDS011;6305;48.398;11.762;2023-07-29T05:25:13;6.18;;;3.80;;
12480;SDS011;6305;48.398;11.762;2023-07-29T05:27:40;7.07;;;3.60;;
12480;SDS011;6305;48.398;11.762;2023-07-29T05:30:07;5.95;;;3.28;;
12480;SDS011;6305;48.398;11.762;2023-07-29T05:32:35;3.70;;;2.80;;
12480;SDS011;6305;48.398;11.762;2023-07-29T05:35:02;2.65;;;2.45;;
12480;SDS011;6305;48.398;11.762;2023-07-29T05:37:30;3.65;;;2.42;;
12480;SDS011;6305;48.398;11.762;2023-07-29T05:39:59;4.00;;;2.50;;
12480;SDS011;6305;48.398;11.762;2023-07-29T05:42:26;3.47;;;2.20;;
12480;SDS011;6305;48.398;11.762;2023-07-29T05:44:53;3.08;;;2.00;;
12480;SDS011;6305;48.398;11.762;2023-07-29T05:47:20;3.63;;;2.22;;
12480;SDS011;6305;48.398;11.762;2023-07-29T05:49:47;2.50;;;1.85;;
12480;SDS011;6305;48.398;11.762;2023-07-29T05:52:14;2.80;;;2.10;;
12480;SDS011;6305;48.398;11.762;2023-07-29T05:54:41;2.97;;;2.00;;
12480;SDS011;6305;48.398;11.762;2023-07-29T05:57:10;4.10;;;2.55;;
12480;SDS011;6305;48.398;11.762;2023-07-29T05:59:38;2.90;;;1.90;;
12480;SDS011;6305;48.398;11.762;2023-07-29T06:02:05;2.25;;;2.00;;
12480;SDS011;6305;48.398;11.762;2023-07-29T06:04:32;2.58;;;2.22;;
12480;SDS011;6305;48.398;11.762;2023-07-29T06:06:59;2.53;;;2.25;;
12480;SDS011;6305;48.398;11.762;2023-07-29T06:09:26;2.78;;;2.05;;
12480;SDS011;6305;48.398;11.762;2023-07-29T06:11:53;3.83;;;2.30;;
12480;SDS011;6305;48.398;11.762;2023-07-29T06:14:22;3.40;;;2.05;;
12480;SDS011;6305;48.398;11.762;2023-07-29T06:16:49;2.30;;;2.03;;
12480;SDS011;6305;48.398;11.762;2023-07-29T06:19:16;2.80;;;2.00;;
12480;SDS011;6305;48.398;11.762;2023-07-29T06:21:44;3.05;;;1.90;;
12480;SDS011;6305;48.398;11.762;2023-07-29T06:24:11;3.33;;;2.13;;
12480;SDS011;6305;48.398;11.762;2023-07-29T06:26:38;4.90;;;2.22;;
12480;SDS011;6305;48.398;11.762;2023-07-29T06:29:05;5.38;;;2.55;;
12480;SDS011;6305;48.398;11.762;2023-07-29T06:31:33;2.60;;;2.08;;
12480;SDS011;6305;48.398;11.762;2023-07-29T06:34:00;2.55;;;2.10;;
12480;SDS011;6305;48.398;11.762;2023-07-29T06:36:27;3.30;;;2.22;;
12480;SDS011;6305;48.398;11.762;2023-07-29T06:38:54;2.65;;;2.00;;
12480;SDS011;6305;48.398;11.762;2023-07-29T06:41:21;2.00;;;1.80;;
12480;SDS011;6305;48.398;11.762;2023-07-29T06:43:49;4.13;;;2.40;;
12480;SDS011;6305;48.398;11.762;2023-07-29T06:46:16;2.30;;;1.92;;
12480;SDS011;6305;48.398;11.762;2023-07-29T06:48:44;2.97;;;1.73;;
12480;SDS011;6305;48.398;11.762;2023-07-29T06:51:11;2.40;;;2.00;;
12480;SDS011;6305;48.398;11.762;2023-07-29T06:53:38;2.88;;;1.80;;
12480;SDS011;6305;48.398;11.762;2023-07-29T06:56:05;3.42;;;2.28;;
12480;SDS011;6305;48.398;11.762;2023-07-29T06:58:32;5.50;;;1.88;;
12480;SDS011;6305;48.398;11.762;2023-07-29T07:00:59;2.30;;;1.92;;
12480;SDS011;6305;48.398;11.762;2023-07-29T07:03:26;2.50;;;2.03;;
12480;SDS011;6305;48.398;11.762;2023-07-29T07:05:55;2.88;;;2.30;;
12480;SDS011;6305;48.398;11.762;2023-07-29T07:08:22;2.38;;;2.00;;
12480;SDS011;6305;48.398;11.762;2023-07-29T07:10:49;2.40;;;1.77;;
12480;SDS011;6305;48.398;11.762;2023-07-29T07:13:16;3.90;;;2.30;;
12480;SDS011;6305;48.398;11.762;2023-07-29T07:15:43;5.75;;;3.00;;
12480;SDS011;6305;48.398;11.762;2023-07-29T07:18:11;4.78;;;2.22;;
12480;SDS011;6305;48.398;11.762;2023-07-29T07:20:38;5.15;;;2.45;;
12480;SDS011;6305;48.398;11.762;2023-07-29T07:23:06;4.40;;;2.22;;
12480;SDS011;6305;48.398;11.762;2023-07-29T07:25:37;4.28;;;2.40;;
12480;SDS011;6305;48.398;11.762;2023-07-29T07:28:04;3.63;;;2.42;;
12480;SDS011;6305;48.398;11.762;2023-07-29T07:30:31;3.22;;;2.60;;
12480;SDS011;6305;48.398;11.762;2023-07-29T07:32:58;4.47;;;2.88;;
12480;SDS011;6305;48.398;11.762;2023-07-29T07:35:25;2.63;;;2.35;;
12480;SDS011;6305;48.398;11.762;2023-07-29T07:37:52;3.30;;;2.90;;
12480;SDS011;6305;48.398;11.762;2023-07-29T07:40:20;3.90;;;2.83;;
12480;SDS011;6305;48.398;11.762;2023-07-29T07:42:47;3.28;;;2.97;;
12480;SDS011;6305;48.398;11.762;2023-07-29T07:45:14;5.68;;;3.33;;
12480;SDS011;6305;48.398;11.762;2023-07-29T07:47:43;3.40;;;2.80;;
12480;SDS011;6305;48.398;11.762;2023-07-29T07:50:10;3.95;;;3.00;;
12480;SDS011;6305;48.398;11.762;2023-07-29T07:52:39;4.53;;;3.20;;
12480;SDS011;6305;48.398;11.762;2023-07-29T07:55:06;4.60;;;3.00;;
12480;SDS011;6305;48.398;11.762;2023-07-29T07:57:35;4.65;;;3.10;;
12480;SDS011;6305;48.398;11.762;2023-07-29T08:00:02;5.35;;;2.90;;
12480;SDS011;6305;48.398;11.762;2023-07-29T08:02:38;2.83;;;2.38;;
12480;SDS011;6305;48.398;11.762;2023-07-29T08:05:05;4.03;;;2.60;;
12480;SDS011;6305;48.398;11.762;2023-07-29T08:07:34;5.57;;;2.80;;
12480;SDS011;6305;48.398;11.762;2023-07-29T08:10:01;5.63;;;3.28;;
12480;SDS011;6305;48.398;11.762;2023-07-29T08:12:28;5.90;;;2.88;;
12480;SDS011;6305;48.398;11.762;2023-07-29T08:14:56;3.30;;;2.53;;
12480;SDS011;6305;48.398;11.762;2023-07-29T08:17:23;4.43;;;3.08;;
12480;SDS011;6305;48.398;11.762;2023-07-29T08:19:50;5.47;;;2.65;;
12480;SDS011;6305;48.398;11.762;2023-07-29T08:22:17;3.22;;;2.45;;
12480;SDS011;6305;48.398;11.762;2023-07-29T08:24:45;3.47;;;2.42;;
12480;SDS011;6305;48.398;11.762;2023-07-29T08:27:12;4.25;;;2.50;;
12480;SDS011;6305;48.398;11.762;2023-07-29T08:29:39;3.05;;;2.13;;
12480;SDS011;6305;48.398;11.762;2023-07-29T08:32:08;2.63;;;2.20;;
12480;SDS011;6305;48.398;11.762;2023-07-29T08:34:35;3.97;;;2.30;;
12480;SDS011;6305;48.398;11.762;2023-07-29T08:37:02;2.92;;;2.20;;
12480;SDS011;6305;48.398;11.762;2023-07-29T08:39:30;3.25;;;2.50;;
12480;SDS011;6305;48.398;11.762;2023-07-29T08:41:57;3.28;;;2.38;;
12480;SDS011;6305;48.398;11.762;2023-07-29T08:44:30;3.08;;;2.42;;
12480;SDS011;6305;48.398;11.762;2023-07-29T08:47:02;2.33;;;2.13;;
12480;SDS011;6305;48.398;11.762;2023-07-29T08:49:31;3.97;;;2.20;;
12480;SDS011;6305;48.398;11.762;2023-07-29T08:51:59;3.60;;;2.15;;
12480;SDS011;6305;48.398;11.762;2023-07-29T08:54:27;3.47;;;2.63;;
12480;SDS011;6305;48.398;11.762;2023-07-29T08:56:54;3.25;;;2.50;;
12480;SDS011;6305;48.398;11.762;2023-07-29T08:59:21;3.25;;;2.40;;
12480;SDS011;6305;48.398;11.762;2023-07-29T09:01:49;4.88;;;2.22;;
12480;SDS011;6305;48.398;11.762;2023-07-29T09:04:20;2.78;;;2.05;;
12480;SDS011;6305;48.398;11.762;2023-07-29T09:06:50;3.35;;;2.10;;
12480;SDS011;6305;48.398;11.762;2023-07-29T09:09:17;2.95;;;2.30;;
12480;SDS011;6305;48.398;11.762;2023-07-29T09:11:44;2.92;;;2.58;;
12480;SDS011;6305;48.398;11.762;2023-07-29T09:14:11;3.17;;;2.00;;
12480;SDS011;6305;48.398;11.762;2023-07-29T09:16:39;2.50;;;2.15;;
12480;SDS011;6305;48.398;11.762;2023-07-29T09:19:06;2.30;;;2.03;;
12480;SDS011;6305;48.398;11.762;2023-07-29T09:21:33;3.88;;;2.28;;
12480;SDS011;6305;48.398;11.762;2023-07-29T09:24:06;2.95;;;2.42;;
12480;SDS011;6305;48.398;11.762;2023-07-29T09:26:34;2.83;;;2.30;;
12480;SDS011;6305;48.398;11.762;2023-07-29T09:29:02;2.30;;;2.10;;
12480;SDS011;6305;48.398;11.762;2023-07-29T09:31:29;2.45;;;2.22;;
12480;SDS011;6305;48.398;11.762;2023-07-29T09:33:56;3.00;;;2.13;;
12480;SDS011;6305;48.398;11.762;2023-07-29T09:36:24;2.60;;;2.40;;
12480;SDS011;6305;48.398;11.762;2023-07-29T09:38:53;2.75;;;2.47;;
12480;SDS011;6305;48.398;11.762;2023-07-29T09:41:26;9.43;;;2.03;;
12480;SDS011;6305;48.398;11.762;2023-07-29T09:43:55;2.78;;;2.20;;
12480;SDS011;6305;48.398;11.762;2023-07-29T09:46:24;3.88;;;2.42;;
12480;SDS011;6305;48.398;11.762;2023-07-29T09:48:52;3.92;;;2.55;;
12480;SDS011;6305;48.398;11.762;2023-07-29T09:51:21;3.65;;;2.30;;
12480;SDS011;6305;48.398;11.762;2023-07-29T09:53:50;2.78;;;2.53;;
12480;SDS011;6305;48.398;11.762;2023-07-29T09:56:17;3.35;;;2.47;;
12480;SDS011;6305;48.398;11.762;2023-07-29T09:58:51;2.70;;;2.50;;
12480;SDS011;6305;48.398;11.762;2023-07-29T10:01:18;3.60;;;2.60;;
12480;SDS011;6305;48.398;11.762;2023-07-29T10:03:45;3.30;;;2.53;;
12480;SDS011;6305;48.398;11.762;2023-07-29T10:06:13;2.63;;;2.38;;
12480;SDS011;6305;48.398;11.762;2023-07-29T10:08:40;2.88;;;2.63;;
12480;SDS011;6305;48.398;11.762;2023-07-29T10:11:10;4.20;;;2.67;;
12480;SDS011;6305;48.398;11.762;2023-07-29T10:13:38;3.17;;;2.88;;
12480;SDS011;6305;48.398;11.762;2023-07-29T10:16:07;4.15;;;2.97;;
12480;SDS011;6305;48.398;11.762;2023-07-29T10:18:34;2.95;;;2.75;;
12480;SDS011;6305;48.398;11.762;2023-07-29T10:21:02;3.63;;;2.70;;
12480;SDS011;6305;48.398;11.762;2023-07-29T10:23:32;2.70;;;2.50;;
12480;SDS011;6305;48.398;11.762;2023-07-29T10:26:02;2.80;;;2.50;;
12480;SDS011;6305;48.398;11.762;2023-07-29T10:28:31;2.92;;;2.63;;
12480;SDS011;6305;48.398;11.762;2023-07-29T10:30:59;3.35;;;2.90;;
12480;SDS011;6305;48.398;11.762;2023-07-29T10:33:28;4.05;;;2.80;;
12480;SDS011;6305;48.398;11.762;2023-07-29T10:35:58;3.53;;;2.85;;
12480;SDS011;6305;48.398;11.762;2023-07-29T10:38:25;2.83;;;2.42;;
12480;SDS011;6305;48.398;11.762;2023-07-29T10:40:53;2.95;;;2.47;;
12480;SDS011;6305;48.398;11.762;2023-07-29T10:43:24;3.50;;;3.08;;
12480;SDS011;6305;48.398;11.762;2023-07-29T10:45:52;2.60;;;2.40;;
12480;SDS011;6305;48.398;11.762;2023-07-29T10:51:22;2.70;;;1.83;;
12480;SDS011;6305;48.398;11.762;2023-07-29T10:53:55;2.40;;;2.20;;
12480;SDS011;6305;48.398;11.762;2023-07-29T10:56:26;2.58;;;2.08;;
12480;SDS011;6305;48.398;11.762;2023-07-29T10:58:55;4.65;;;2.47;;
12480;SDS011;6305;48.398;11.762;2023-07-29T11:01:26;6.43;;;2.38;;
12480;SDS011;6305;48.398;11.762;2023-07-29T11:09:52;4.57;;;2.50;;
12480;SDS011;6305;48.398;11.762;2023-07-29T11:12:41;2.53;;;2.25;;
12480;SDS011;6305;48.398;11.762;2023-07-29T11:15:18;3.72;;;2.10;;
12480;SDS011;6305;48.398;11.762;2023-07-29T11:17:47;3.67;;;2.10;;
12480;SDS011;6305;48.398;11.762;2023-07-29T11:20:17;3.92;;;2.67;;
12480;SDS011;6305;48.398;11.762;2023-07-29T11:22:44;6.60;;;3.00;;
12480;SDS011;6305;48.398;11.762;2023-07-29T11:25:12;6.10;;;2.80;;
12480;SDS011;6305;48.398;11.762;2023-07-29T11:27:40;5.20;;;3.67;;
12480;SDS011;6305;48.398;11.762;2023-07-29T11:30:08;10.90;;;3.92;;
12480;SDS011;6305;48.398;11.762;2023-07-29T11:32:37;4.63;;;3.70;;
12480;SDS011;6305;48.398;11.762;2023-07-29T11:35:06;5.05;;;3.40;;
12480;SDS011;6305;48.398;11.762;2023-07-29T11:37:37;5.50;;;3.85;;
12480;SDS011;6305;48.398;11.762;2023-07-29T11:40:05;4.97;;;3.40;;
12480;SDS011;6305;48.398;11.762;2023-07-29T11:42:37;4.57;;;3.00;;
12480;SDS011;6305;48.398;11.762;2023-07-29T11:45:05;4.53;;;3.15;;
12480;SDS011;6305;48.398;11.762;2023-07-29T11:47:33;3.92;;;3.03;;
12480;SDS011;6305;48.398;11.762;2023-07-29T11:50:02;7.72;;;2.95;;
12480;SDS011;6305;48.398;11.762;2023-07-29T11:52:31;5.50;;;3.35;;
12480;SDS011;6305;48.398;11.762;2023-07-29T11:55:00;5.53;;;2.92;;
12480;SDS011;6305;48.398;11.762;2023-07-29T11:57:28;4.03;;;2.50;;
12480;SDS011;6305;48.398;11.762;2023-07-29T11:59:55;2.53;;;2.30;;
12480;SDS011;6305;48.398;11.762;2023-07-29T12:02:23;3.53;;;2.47;;
12480;SDS011;6305;48.398;11.762;2023-07-29T12:04:51;3.67;;;2.33;;
12480;SDS011;6305;48.398;11.762;2023-07-29T12:07:18;2.60;;;2.35;;
12480;SDS011;6305;48.398;11.762;2023-07-29T12:09:46;3.47;;;2.40;;
12480;SDS011;6305;48.398;11.762;2023-07-29T12:12:15;2.90;;;2.40;;
12480;SDS011;6305;48.398;11.762;2023-07-29T12:14:43;2.55;;;2.25;;
12480;SDS011;6305;48.398;11.762;2023-07-29T12:17:12;2.50;;;2.10;;
12480;SDS011;6305;48.398;11.762;2023-07-29T12:19:39;2.28;;;1.98;;
12480;SDS011;6305;48.398;11.762;2023-07-29T12:22:08;2.63;;;2.42;;
12480;SDS011;6305;48.398;11.762;2023-07-29T12:24:37;3.13;;;2.50;;
12480;SDS011;6305;48.398;11.762;2023-07-29T12:27:05;2.40;;;2.20;;
12480;SDS011;6305;48.398;11.762;2023-07-29T12:29:40;4.18;;;2.40;;
12480;SDS011;6305;48.398;11.762;2023-07-29T12:32:08;2.55;;;2.33;;
12480;SDS011;6305;48.398;11.762;2023-07-29T12:34:37;2.45;;;2.08;;
12480;SDS011;6305;48.398;11.762;2023-07-29T12:37:05;3.20;;;2.55;;
12480;SDS011;6305;48.398;11.762;2023-07-29T12:39:33;2.70;;;2.33;;
12480;SDS011;6305;48.398;11.762;2023-07-29T12:42:02;2.35;;;2.15;;
12480;SDS011;6305;48.398;11.762;2023-07-29T12:44:30;2.97;;;2.55;;
12480;SDS011;6305;48.398;11.762;2023-07-29T12:47:00;2.45;;;2.22;;
12480;SDS011;6305;48.398;11.762;2023-07-29T12:49:28;3.10;;;2.42;;
12480;SDS011;6305;48.398;11.762;2023-07-29T12:51:55;4.28;;;2.72;;
12480;SDS011;6305;48.398;11.762;2023-07-29T12:54:22;2.67;;;2.47;;
12480;SDS011;6305;48.398;11.762;2023-07-29T12:56:49;3.35;;;2.30;;
12480;SDS011;6305;48.398;11.762;2023-07-29T12:59:17;3.38;;;2.42;;
12480;SDS011;6305;48.398;11.762;2023-07-29T13:01:44;2.85;;;2.55;;
12480;SDS011;6305;48.398;11.762;2023-07-29T13:04:13;2.95;;;2.50;;
12480;SDS011;6305;48.398;11.762;2023-07-29T13:06:40;3.53;;;2.40;;
12480;SDS011;6305;48.398;11.762;2023-07-29T13:09:07;3.75;;;2.47;;
12480;SDS011;6305;48.398;11.762;2023-07-29T13:11:34;2.97;;;2.65;;
12480;SDS011;6305;48.398;11.762;2023-07-29T13:14:01;2.58;;;2.22;;
12480;SDS011;6305;48.398;11.762;2023-07-29T13:16:28;3.28;;;2.53;;
12480;SDS011;6305;48.398;11.762;2023-07-29T13:18:55;2.72;;;2.45;;
12480;SDS011;6305;48.398;11.762;2023-07-29T13:21:24;2.60;;;2.17;;
12480;SDS011;6305;48.398;11.762;2023-07-29T13:23:51;2.13;;;1.92;;
12480;SDS011;6305;48.398;11.762;2023-07-29T13:26:18;3.53;;;2.53;;
12480;SDS011;6305;48.398;11.762;2023-07-29T13:28:45;3.35;;;2.28;;
12480;SDS011;6305;48.398;11.762;2023-07-29T13:31:12;2.80;;;2.40;;
12480;SDS011;6305;48.398;11.762;2023-07-29T13:33:39;2.60;;;2.30;;
12480;SDS011;6305;48.398;11.762;2023-07-29T13:36:06;2.58;;;2.28;;
12480;SDS011;6305;48.398;11.762;2023-07-29T13:38:35;2.90;;;2.20;;
12480;SDS011;6305;48.398;11.762;2023-07-29T13:41:02;2.50;;;2.20;;
12480;SDS011;6305;48.398;11.762;2023-07-29T13:43:30;2.67;;;1.98;;
12480;SDS011;6305;48.398;11.762;2023-07-29T13:45:57;2.42;;;2.10;;
12480;SDS011;6305;48.398;11.762;2023-07-29T13:48:23;2.95;;;2.30;;
12480;SDS011;6305;48.398;11.762;2023-07-29T13:50:50;3.92;;;2.08;;
12480;SDS011;6305;48.398;11.762;2023-07-29T13:53:17;2.78;;;2.15;;
12480;SDS011;6305;48.398;11.762;2023-07-29T13:55:45;2.65;;;2.45;;
12480;SDS011;6305;48.398;11.762;2023-07-29T13:58:12;2.65;;;2.30;;
12480;SDS011;6305;48.398;11.762;2023-07-29T14:00:39;3.20;;;2.20;;
12480;SDS011;6305;48.398;11.762;2023-07-29T14:03:06;2.20;;;2.00;;
12480;SDS011;6305;48.398;11.762;2023-07-29T14:05:33;2.22;;;1.83;;
12480;SDS011;6305;48.398;11.762;2023-07-29T14:08:01;2.90;;;2.03;;
12480;SDS011;6305;48.398;11.762;2023-07-29T14:10:28;2.13;;;1.92;;
12480;SDS011;6305;48.398;11.762;2023-07-29T14:12:56;2.67;;;1.98;;
12480;SDS011;6305;48.398;11.762;2023-07-29T14:15:23;2.03;;;1.83;;
12480;SDS011;6305;48.398;11.762;2023-07-29T14:17:50;2.38;;;1.95;;
12480;SDS011;6305;48.398;11.762;2023-07-29T14:20:17;3.30;;;1.73;;
12480;SDS011;6305;48.398;11.762;2023-07-29T14:22:44;2.28;;;2.08;;
12480;SDS011;6305;48.398;11.762;2023-07-29T14:25:11;2.08;;;1.70;;
12480;SDS011;6305;48.398;11.762;2023-07-29T14:27:40;2.13;;;1.92;;
12480;SDS011;6305;48.398;11.762;2023-07-29T14:30:09;2.47;;;1.67;;
12480;SDS011;6305;48.398;11.762;2023-07-29T14:32:37;1.95;;;1.80;;
12480;SDS011;6305;48.398;11.762;2023-07-29T14:35:04;2.42;;;1.85;;
12480;SDS011;6305;48.398;11.762;2023-07-29T14:37:31;2.38;;;1.90;;
12480;SDS011;6305;48.398;11.762;2023-07-29T14:39:58;2.25;;;1.75;;
12480;SDS011;6305;48.398;11.762;2023-07-29T14:42:26;2.15;;;1.88;;
12480;SDS011;6305;48.398;11.762;2023-07-29T14:44:53;2.13;;;1.52;;
12480;SDS011;6305;48.398;11.762;2023-07-29T14:47:22;1.42;;;1.30;;
12480;SDS011;6305;48.398;11.762;2023-07-29T14:49:49;1.67;;;1.40;;
12480;SDS011;6305;48.398;11.762;2023-07-29T14:52:15;2.42;;;1.55;;
12480;SDS011;6305;48.398;11.762;2023-07-29T14:54:42;1.40;;;1.30;;
12480;SDS011;6305;48.398;11.762;2023-07-29T14:57:10;4.07;;;1.50;;